SPHO/AYP METAR and TAF weather

Enter ICAO airport designator
Station Type Date Time Source
SPHO METAR 2021/05/12 18:00 UTC NOAA

SPHO 121800Z /////KT 9999 BKN050 19/04 Q1028 RMK VRB02KT RWY 02 PP000


Station Type Date Time Source
SPHO Decoded METAR 2021/05/12 18:00 UTC NOAA

Ayacucho, Peru (SPHO) 13-08S 074-13W 2749M
May 12, 2021 - 02:00 PM EDT / 2021.05.12 1800 UTC
Visibility: greater than 7 mile(s):0
Sky conditions: mostly cloudy
Temperature: 66 F (19 C)
Dew Point: 39 F (4 C)
Relative Humidity: 37%
Pressure (altimeter): 30.36 in. Hg (1028 hPa)
ob: SPHO 121800Z /////KT 9999 BKN050 19/04 Q1028 RMK VRB02KT RWY 02 PP000
cycle: 18

Station Type Date Time Source
SPHO TAF 2021/05/12 18:33 UTC NOAA

SPHO 121700Z 1218/1318 VRB05KT 9999 SCT045 BKN080 TX22/1220Z TN09/1311Z

Example: see airport list